Time;durP1;ratioP1;P1;durP2;ratioP2;P2;SDS_P1;SDS_P2;PMS_P1;PMS_P2;Temp;Humidity;BMP_temperature;BMP_pressure;BME280_temperature;BME280_humidity;BME280_pressure;Samples;Min_cycle;Max_cycle;Signal;HPM_P1;HPM_P2
2022/12/24 00:01:00;;;;;;;155.70;85.22;;;;;;;3.03;nan;94934.47;5049908;28;20261;-60
2022/12/24 00:03:28;;;;;;;172.47;88.07;;;;;;;3.11;nan;94942.78;5049987;28;20206;-61
2022/12/24 00:05:54;;;;;;;174.30;92.28;;;;;;;3.10;nan;94941.13;5050261;28;20206;-61
2022/12/24 00:08:21;;;;;;;151.83;78.37;;;;;;;3.13;nan;94945.28;5050609;28;20214;-61
2022/12/24 00:10:51;;;;;;;149.60;77.87;;;;;;;3.08;nan;94938.63;5050073;28;20205;-61
2022/12/24 00:13:18;;;;;;;150.43;77.93;;;;;;;3.13;nan;94943.63;5051430;28;20197;-61
2022/12/24 00:15:47;;;;;;;142.73;75.47;;;;;;;3.10;nan;94941.13;5050087;28;20302;-63
2022/12/24 00:18:13;;;;;;;142.25;73.82;;;;;;;3.03;nan;94939.50;5049384;28;20745;-61
2022/12/24 00:20:40;;;;;;;138.67;72.83;;;;;;;3.08;nan;94945.31;5048257;28;20217;-61
2022/12/24 00:23:07;;;;;;;140.63;75.50;;;;;;;3.09;nan;94944.47;5050509;28;20223;-61
2022/12/24 00:25:34;;;;;;;141.80;74.20;;;;;;;3.06;nan;94945.31;5050239;28;20205;-62
2022/12/24 00:28:01;;;;;;;149.63;74.77;;;;;;;3.05;nan;94942.81;5049898;28;20205;-61
2022/12/24 00:30:28;;;;;;;138.83;69.83;;;;;;;3.02;nan;94942.84;5044236;28;20996;-61
2022/12/24 00:32:56;;;;;;;139.03;70.37;;;;;;;3.03;nan;94942.00;5048243;28;22200;-62
2022/12/24 00:35:23;;;;;;;129.50;67.53;;;;;;;2.99;nan;94940.34;5049574;28;20197;-60
2022/12/24 00:37:50;;;;;;;123.80;66.90;;;;;;;2.96;nan;94938.72;5048861;28;20221;-60
2022/12/24 00:40:17;;;;;;;134.87;70.27;;;;;;;2.95;nan;94946.25;5048938;28;20209;-60
2022/12/24 00:42:44;;;;;;;124.40;68.70;;;;;;;2.96;nan;94950.44;5048563;28;20287;-60
2022/12/24 00:45:12;;;;;;;134.87;67.27;;;;;;;2.97;nan;94929.50;5046020;28;20605;-61
2022/12/24 00:47:39;;;;;;;133.10;67.45;;;;;;;2.93;nan;94940.41;5046074;28;22305;-61
2022/12/24 00:50:08;;;;;;;123.70;65.87;;;;;;;2.89;nan;94948.78;5046334;28;20213;-61
2022/12/24 00:52:35;;;;;;;129.17;67.03;;;;;;;2.86;nan;94942.13;5048414;28;20291;-60
2022/12/24 00:55:03;;;;;;;109.47;60.83;;;;;;;2.74;nan;94945.50;5047313;28;20209;-60
2022/12/24 00:57:29;;;;;;;116.90;58.77;;;;;;;2.73;nan;94948.84;5042537;28;20225;-61
2022/12/24 00:59:56;;;;;;;104.43;57.27;;;;;;;2.74;nan;94955.53;5047329;28;20201;-59
2022/12/24 01:02:23;;;;;;;96.57;51.90;;;;;;;2.69;nan;94954.75;5048446;28;20198;-61
2022/12/24 01:05:11;;;;;;;92.40;50.27;;;;;;;2.66;nan;94954.78;5049551;28;20217;-61
2022/12/24 01:07:42;;;;;;;84.37;47.47;;;;;;;2.63;nan;94944.75;5049673;28;20206;-61
2022/12/24 01:10:11;;;;;;;85.57;45.00;;;;;;;2.69;nan;94952.25;5048761;28;20216;-62
2022/12/24 01:12:37;;;;;;;92.07;44.90;;;;;;;2.61;nan;94956.47;5049294;28;20209;-63
2022/12/24 01:15:05;;;;;;;89.50;44.50;;;;;;;2.60;nan;94959.81;5049134;28;20251;-62
2022/12/24 01:17:33;;;;;;;80.63;44.03;;;;;;;2.51;nan;94954.81;5048245;28;20593;-61
2022/12/24 01:20:00;;;;;;;85.50;44.67;;;;;;;2.61;nan;94964.00;5047695;28;20213;-62
2022/12/24 01:22:26;;;;;;;86.90;43.80;;;;;;;2.62;nan;94952.28;5048045;28;20216;-62
2022/12/24 01:24:55;;;;;;;90.07;44.27;;;;;;;2.63;nan;94949.78;5049098;28;20202;-61
2022/12/24 01:27:21;;;;;;;90.50;39.93;;;;;;;2.67;nan;94941.38;5047512;28;20216;-61
2022/12/24 01:29:48;;;;;;;78.40;39.67;;;;;;;2.70;nan;94933.84;5047316;28;20219;-63
2022/12/24 01:32:15;;;;;;;76.73;42.10;;;;;;;2.61;nan;94946.44;5046909;28;20206;-62
2022/12/24 01:34:42;;;;;;;75.33;39.57;;;;;;;2.71;nan;94942.22;5048975;28;20228;-61
2022/12/24 01:37:08;;;;;;;66.77;37.67;;;;;;;2.69;nan;94943.91;5048575;28;20221;-61
2022/12/24 01:39:35;;;;;;;63.43;35.60;;;;;;;2.69;nan;94961.47;5048685;28;20210;-61
2022/12/24 01:45:45;;;;;;;68.37;36.73;;;;;;;2.66;nan;94951.44;5048348;28;21169;-60
2022/12/24 01:48:16;;;;;;;62.73;37.40;;;;;;;2.54;nan;94942.28;5005277;28;20202;-61
2022/12/24 01:50:43;;;;;;;71.40;35.27;;;;;;;2.51;nan;94934.75;5039581;28;20768;-60
2022/12/24 01:53:11;;;;;;;62.13;34.93;;;;;;;2.47;nan;94948.19;5046626;28;20262;-61
2022/12/24 01:55:37;;;;;;;57.17;33.43;;;;;;;2.38;nan;94948.22;5047464;28;20740;-60
2022/12/24 01:58:07;;;;;;;67.77;31.27;;;;;;;2.41;nan;94948.19;5049016;28;20702;-61
2022/12/24 02:00:34;;;;;;;51.43;28.00;;;;;;;2.37;nan;94942.34;5048172;28;20205;-60
2022/12/24 02:03:01;;;;;;;44.33;27.27;;;;;;;2.41;nan;94940.69;5046621;28;20570;-59
2022/12/24 02:05:32;;;;;;;48.10;27.33;;;;;;;2.37;nan;94921.47;5048258;28;20214;-61
2022/12/24 02:08:01;;;;;;;46.73;27.40;;;;;;;2.35;nan;94928.16;5047838;28;20212;-61
2022/12/24 02:10:28;;;;;;;47.83;26.40;;;;;;;2.36;nan;94929.81;5047867;28;20209;-65
2022/12/24 02:12:56;;;;;;;44.80;25.87;;;;;;;2.37;nan;94934.84;5047166;28;20706;-61
2022/12/24 02:15:25;;;;;;;50.23;26.73;;;;;;;2.33;nan;94929.84;5047069;28;21931;-63
2022/12/24 02:18:02;;;;;;;47.87;27.47;;;;;;;2.36;nan;94939.84;5047327;28;20221;-61
2022/12/24 02:20:46;;;;;;;44.70;25.03;;;;;;;2.34;nan;94936.53;5047695;28;20216;-64
2022/12/24 02:23:47;;;;;;;46.13;25.20;;;;;;;2.34;nan;94942.38;5047335;28;20710;-61
2022/12/24 02:26:25;;;;;;;44.63;25.63;;;;;;;2.31;nan;94934.84;5020349;28;20211;-61
2022/12/24 02:29:19;;;;;;;44.87;26.40;;;;;;;2.24;nan;94937.38;5046381;28;20205;-61
2022/12/24 02:31:52;;;;;;;53.63;25.97;;;;;;;2.30;nan;94939.88;5047900;28;20327;-60
2022/12/24 02:34:28;;;;;;;44.17;25.70;;;;;;;2.19;nan;94939.94;5043582;28;20521;-61
2022/12/24 02:36:59;;;;;;;39.70;23.97;;;;;;;2.08;nan;94935.78;5048313;28;20755;-61
2022/12/24 02:39:33;;;;;;;41.17;24.87;;;;;;;2.21;nan;94940.75;5047517;28;20658;-61
2022/12/24 02:42:05;;;;;;;43.45;24.05;;;;;;;2.18;nan;94940.78;5047502;28;20200;-62
2022/12/24 02:44:39;;;;;;;43.53;24.58;;;;;;;2.21;nan;94939.94;5046238;28;20210;-61
2022/12/24 02:47:09;;;;;;;37.08;23.48;;;;;;;2.25;nan;94939.06;5047388;28;20205;-61
2022/12/24 02:49:37;;;;;;;50.07;26.83;;;;;;;2.19;nan;94926.56;5048241;28;20212;-61
2022/12/24 02:52:04;;;;;;;52.70;27.37;;;;;;;2.20;nan;94926.56;5046928;28;20793;-60
2022/12/24 02:54:32;;;;;;;51.90;27.10;;;;;;;2.12;nan;94914.88;5046590;28;20227;-60
2022/12/24 02:57:13;;;;;;;44.70;26.20;;;;;;;2.03;nan;94914.06;5046668;28;20867;-60
2022/12/24 02:59:51;;;;;;;46.90;25.47;;;;;;;2.04;nan;94924.91;5047087;28;20760;-61
2022/12/24 03:02:27;;;;;;;51.50;26.87;;;;;;;2.01;nan;94914.91;5047303;28;20300;-65
2022/12/24 03:05:02;;;;;;;44.07;25.43;;;;;;;1.97;nan;94916.63;5045968;28;20327;-61
2022/12/24 03:07:36;;;;;;;50.70;26.43;;;;;;;1.99;nan;94924.94;5047872;28;20236;-61
2022/12/24 03:10:12;;;;;;;46.03;26.77;;;;;;;1.99;nan;94922.41;5047550;28;20205;-61
2022/12/24 03:12:43;;;;;;;42.33;25.67;;;;;;;1.94;nan;94926.63;5048238;28;20201;-61
2022/12/24 03:15:13;;;;;;;43.20;26.47;;;;;;;2.03;nan;94916.56;5048893;28;20248;-62
2022/12/24 03:17:43;;;;;;;49.70;25.57;;;;;;;2.11;nan;94915.72;5050616;28;20233;-61
2022/12/24 03:20:13;;;;;;;49.70;26.87;;;;;;;1.98;nan;94917.44;5050736;28;20671;-60
2022/12/24 03:22:40;;;;;;;44.77;26.00;;;;;;;1.92;nan;94913.28;5051224;28;20202;-61
2022/12/24 03:25:07;;;;;;;42.97;25.87;;;;;;;1.95;nan;94912.44;5049221;28;20235;-62
2022/12/24 03:27:35;;;;;;;47.00;25.90;;;;;;;1.93;nan;94919.97;5049486;28;20448;-62
2022/12/24 03:30:05;;;;;;;48.37;26.57;;;;;;;2.00;nan;94925.75;5049851;28;20259;-61
2022/12/24 03:32:33;;;;;;;51.07;28.33;;;;;;;1.98;nan;94918.25;5051659;28;20210;-61
2022/12/24 03:35:01;;;;;;;48.77;28.43;;;;;;;1.95;nan;94912.44;5048273;28;20229;-61
2022/12/24 03:37:28;;;;;;;43.60;26.30;;;;;;;1.97;nan;94921.63;5050604;28;20229;-62
2022/12/24 03:39:54;;;;;;;41.03;25.43;;;;;;;1.96;nan;94922.47;5050547;28;20206;-62
2022/12/24 03:42:21;;;;;;;46.73;25.23;;;;;;;1.94;nan;94920.78;5051209;28;20209;-61
2022/12/24 03:44:48;;;;;;;49.30;26.50;;;;;;;1.87;nan;94930.00;5049673;28;20201;-62
2022/12/24 03:47:15;;;;;;;48.60;26.73;;;;;;;1.85;nan;94926.66;5051306;28;20213;-61
2022/12/24 03:49:41;;;;;;;43.00;27.70;;;;;;;1.75;nan;94925.00;5050276;28;20212;-61
2022/12/24 03:52:09;;;;;;;46.33;26.17;;;;;;;1.83;nan;94933.34;5050073;28;20206;-62
2022/12/24 03:54:36;;;;;;;49.13;26.10;;;;;;;1.90;nan;94930.00;5050930;28;20293;-62
2022/12/24 03:57:03;;;;;;;42.17;25.10;;;;;;;1.95;nan;94923.28;5049889;28;20201;-62
2022/12/24 03:59:29;;;;;;;44.77;25.37;;;;;;;1.87;nan;94924.97;5049080;28;20261;-61
2022/12/24 04:01:56;;;;;;;48.95;27.38;;;;;;;1.87;nan;94935.00;5050604;28;21710;-61
2022/12/24 04:04:23;;;;;;;46.80;26.87;;;;;;;1.86;nan;94940.84;5049417;28;20202;-62
2022/12/24 04:06:50;;;;;;;45.77;25.00;;;;;;;1.85;nan;94944.19;5049741;28;20576;-62
2022/12/24 04:09:18;;;;;;;42.00;25.07;;;;;;;1.88;nan;94945.84;5049400;28;20198;-61
2022/12/24 04:11:45;;;;;;;39.40;25.33;;;;;;;1.88;nan;94941.69;5049678;28;20206;-61
2022/12/24 04:14:11;;;;;;;45.93;25.30;;;;;;;1.90;nan;94954.22;5048666;28;20237;-61
2022/12/24 04:16:38;;;;;;;46.03;25.37;;;;;;;1.87;nan;94950.03;5049496;28;20213;-61
2022/12/24 04:19:05;;;;;;;37.17;24.27;;;;;;;1.83;nan;94942.53;5050971;28;20225;-61
2022/12/24 04:21:31;;;;;;;40.73;23.77;;;;;;;1.82;nan;94950.88;5049509;28;20205;-61
2022/12/24 04:23:58;;;;;;;42.78;23.42;;;;;;;1.74;nan;94955.06;5049097;28;20553;-60
2022/12/24 04:26:26;;;;;;;39.57;23.57;;;;;;;1.74;nan;94950.88;5048155;28;20220;-61
2022/12/24 04:28:53;;;;;;;47.43;26.67;;;;;;;1.67;nan;94961.75;5049759;28;20205;-61
2022/12/24 04:31:20;;;;;;;48.90;24.97;;;;;;;1.71;nan;94953.41;5051567;28;20209;-61
2022/12/24 04:33:47;;;;;;;49.40;26.40;;;;;;;1.74;nan;94970.91;5049712;28;20221;-61
2022/12/24 04:36:16;;;;;;;48.70;24.80;;;;;;;1.66;nan;94975.13;5048910;28;20915;-61
2022/12/24 04:38:43;;;;;;;41.70;22.83;;;;;;;1.76;nan;94976.75;5049620;28;20221;-61
2022/12/24 04:41:12;;;;;;;49.47;24.63;;;;;;;1.87;nan;94967.56;5050184;28;20205;-61
2022/12/24 04:43:40;;;;;;;46.10;26.60;;;;;;;1.87;nan;94972.59;5050565;28;20205;-61
2022/12/24 04:46:08;;;;;;;41.23;23.20;;;;;;;1.87;nan;94964.22;5048165;28;20293;-61
2022/12/24 04:48:35;;;;;;;41.03;24.23;;;;;;;1.79;nan;94966.75;5049555;28;20189;-60
2022/12/24 04:51:03;;;;;;;38.63;23.17;;;;;;;1.84;nan;94961.72;5049118;28;20453;-62
2022/12/24 04:53:30;;;;;;;43.87;24.17;;;;;;;1.81;nan;94964.25;5049147;28;20642;-59
2022/12/24 04:55:57;;;;;;;42.30;25.07;;;;;;;1.78;nan;94957.56;5048830;28;20225;-61
2022/12/24 04:58:24;;;;;;;40.87;22.73;;;;;;;1.66;nan;94927.53;5048874;28;20236;-61
2022/12/24 05:00:52;;;;;;;39.17;23.13;;;;;;;1.79;nan;94959.22;5048440;28;20218;-63
2022/12/24 05:03:19;;;;;;;46.95;23.63;;;;;;;1.80;nan;94958.38;5050720;28;20202;-63
2022/12/24 05:05:46;;;;;;;45.83;22.57;;;;;;;1.82;nan;94956.72;5048760;28;20224;-62
2022/12/24 05:08:13;;;;;;;37.23;22.73;;;;;;;1.77;nan;94938.34;5048616;28;20278;-63
2022/12/24 05:10:40;;;;;;;45.00;23.10;;;;;;;1.76;nan;94951.72;5049060;28;20254;-62
2022/12/24 05:13:07;;;;;;;35.43;22.47;;;;;;;1.58;nan;94911.66;5049001;28;22405;-63
2022/12/24 05:15:33;;;;;;;40.57;24.33;;;;;;;1.81;nan;94934.19;5047936;28;20719;-63
2022/12/24 05:18:01;;;;;;;42.97;23.00;;;;;;;1.83;nan;94933.34;5047635;28;20224;-60
2022/12/24 05:20:29;;;;;;;43.53;26.83;;;;;;;1.87;nan;94932.50;5047683;28;20215;-62
2022/12/24 05:28:24;;;;;;;58.03;30.00;;;;;;;1.90;nan;94950.03;5046604;28;20764;-62
2022/12/24 05:30:51;;;;;;;52.33;28.20;;;;;;;1.89;nan;94948.38;5048551;28;20289;-62
2022/12/24 05:33:19;;;;;;;54.23;28.80;;;;;;;1.92;nan;94953.38;5045770;28;20278;-61
2022/12/24 05:35:46;;;;;;;51.67;30.77;;;;;;;1.92;nan;94953.38;5047740;28;21170;-63
2022/12/24 05:38:13;;;;;;;52.23;29.43;;;;;;;1.93;nan;94961.72;5046721;28;20230;-64
2022/12/24 05:40:39;;;;;;;55.43;30.33;;;;;;;1.92;nan;94943.34;5049028;28;21348;-62
2022/12/24 05:43:06;;;;;;;58.13;29.90;;;;;;;1.98;nan;94947.53;5047979;28;20209;-62
2022/12/24 05:45:33;;;;;;;63.97;33.70;;;;;;;2.10;nan;94951.66;5046935;28;20319;-61
2022/12/24 05:48:00;;;;;;;77.50;38.60;;;;;;;2.18;nan;94939.94;5049225;28;20206;-62
2022/12/24 05:50:28;;;;;;;77.30;40.10;;;;;;;2.16;nan;94932.41;5048197;28;20216;-61
2022/12/24 05:52:54;;;;;;;66.17;36.50;;;;;;;2.30;nan;94930.69;5048333;28;20217;-60
2022/12/24 05:55:21;;;;;;;81.17;37.70;;;;;;;2.43;nan;94928.97;5048098;28;20202;-61
2022/12/24 05:57:48;;;;;;;73.70;38.77;;;;;;;2.44;nan;94948.19;5048045;28;20228;-62
2022/12/24 06:00:15;;;;;;;115.25;52.88;;;;;;;2.51;nan;94944.78;5047376;28;20201;-61
2022/12/24 06:02:42;;;;;;;78.23;42.83;;;;;;;2.62;nan;94943.09;5048837;28;20201;-61
2022/12/24 06:05:09;;;;;;;64.57;34.65;;;;;;;2.63;nan;94949.78;5048105;28;20242;-64
2022/12/24 06:07:37;;;;;;;62.60;32.03;;;;;;;2.67;nan;94936.38;5049216;28;20303;-61
2022/12/24 06:10:05;;;;;;;62.65;32.10;;;;;;;2.85;nan;94954.66;5048627;28;20209;-61
2022/12/24 06:12:31;;;;;;;64.63;34.23;;;;;;;3.03;nan;94949.53;5047163;28;20202;-60
2022/12/24 06:14:58;;;;;;;62.90;34.67;;;;;;;3.09;nan;94949.50;5047146;28;20247;-61
2022/12/24 06:17:25;;;;;;;74.57;39.05;;;;;;;3.19;nan;94956.13;5049178;28;20209;-61
2022/12/24 06:19:52;;;;;;;75.70;37.65;;;;;;;3.22;nan;94961.09;5046740;28;20225;-61
2022/12/24 06:22:18;;;;;;;77.80;40.17;;;;;;;3.16;nan;94956.16;5047726;28;20678;-61
2022/12/24 06:24:47;;;;;;;77.90;40.40;;;;;;;3.11;nan;94962.03;5047214;28;20884;-60
2022/12/24 06:27:13;;;;;;;76.18;39.08;;;;;;;3.18;nan;94959.50;5047583;28;20294;-61
2022/12/24 06:29:40;;;;;;;69.63;39.35;;;;;;;3.25;nan;94961.09;5047998;28;20210;-60
2022/12/24 06:32:07;;;;;;;77.22;41.47;;;;;;;3.35;nan;94966.88;5047931;28;20657;-62
2022/12/24 06:34:34;;;;;;;80.75;40.50;;;;;;;3.39;nan;94969.38;5047016;28;20242;-61
2022/12/24 06:37:01;;;;;;;101.93;48.33;;;;;;;3.40;nan;94973.56;5048201;28;20698;-61
2022/12/24 06:39:28;;;;;;;84.13;42.97;;;;;;;3.36;nan;94974.41;5047695;28;20309;-61
2022/12/24 06:41:56;;;;;;;87.17;43.37;;;;;;;3.32;nan;94977.78;5046609;28;20232;-62
2022/12/24 06:44:23;;;;;;;77.75;41.10;;;;;;;3.31;nan;94980.31;5046981;28;20675;-61
2022/12/24 06:46:50;;;;;;;80.85;41.17;;;;;;;3.29;nan;94982.84;5047948;28;20205;-62
2022/12/24 06:49:16;;;;;;;81.03;40.57;;;;;;;3.27;nan;94984.50;5051316;28;20208;-61
2022/12/24 06:51:43;;;;;;;85.40;41.13;;;;;;;3.21;nan;94982.06;5051548;28;20197;-61
2022/12/24 06:54:10;;;;;;;78.73;40.47;;;;;;;3.28;nan;94990.38;5050681;28;20210;-63
2022/12/24 06:56:37;;;;;;;74.53;40.10;;;;;;;3.29;nan;94972.78;5052475;28;21398;-64
2022/12/24 06:59:05;;;;;;;74.60;39.67;;;;;;;3.56;nan;94984.31;5050669;28;20221;-62
2022/12/24 07:01:32;;;;;;;76.87;39.93;;;;;;;3.86;nan;94980.72;5051023;28;20205;-61
2022/12/24 07:03:58;;;;;;;74.83;39.90;;;;;;;4.32;nan;94976.03;5050274;28;20201;-62
2022/12/24 07:06:28;;;;;;;82.57;43.47;;;;;;;4.82;nan;94981.31;5051057;28;20212;-62
2022/12/24 07:08:55;;;;;;;83.88;43.83;;;;;;;5.14;nan;94991.81;5051946;28;20217;-62
2022/12/24 07:11:23;;;;;;;83.22;46.20;;;;;;;5.60;nan;94989.44;5051074;28;20206;-62
2022/12/24 07:13:50;;;;;;;79.63;41.77;;;;;;;6.12;nan;94991.16;5050325;28;20209;-61
2022/12/24 07:16:18;;;;;;;86.90;42.53;;;;;;;6.43;nan;94988.91;5051209;28;20213;-61
2022/12/24 07:18:45;;;;;;;71.00;42.45;;;;;;;6.59;nan;94981.84;5050856;28;20933;-61
2022/12/24 07:21:11;;;;;;;82.47;42.38;;;;;;;6.68;nan;94979.97;5051057;28;20209;-61
2022/12/24 07:23:38;;;;;;;84.68;43.10;;;;;;;6.41;nan;94991.47;5051418;28;20220;-61
2022/12/24 07:26:07;;;;;;;83.35;43.78;;;;;;;6.06;nan;94987.03;5050076;28;20224;-61
2022/12/24 07:28:34;;;;;;;90.05;44.78;;;;;;;5.67;nan;94985.16;5050480;28;20282;-61
2022/12/24 07:31:00;;;;;;;90.68;45.65;;;;;;;5.53;nan;94989.56;5049430;28;20709;-62
2022/12/24 07:33:29;;;;;;;88.28;44.53;;;;;;;5.50;nan;94982.03;5050379;28;20229;-62
2022/12/24 07:36:01;;;;;;;77.65;44.88;;;;;;;5.73;nan;94998.47;5050601;28;20239;-61
2022/12/24 07:38:28;;;;;;;85.30;44.97;;;;;;;5.99;nan;94988.00;5050616;28;20247;-61
2022/12/24 07:40:55;;;;;;;101.43;45.72;;;;;;;6.46;nan;94984.59;5051130;28;20387;-61
2022/12/24 07:43:22;;;;;;;93.03;46.55;;;;;;;7.09;nan;94996.00;5049944;28;20210;-61
2022/12/24 07:45:48;;;;;;;99.82;51.70;;;;;;;7.46;nan;95001.06;5049596;28;20592;-62
2022/12/24 07:48:15;;;;;;;102.72;51.45;;;;;;;7.65;nan;94996.44;5049904;28;21717;-60
2022/12/24 07:50:43;;;;;;;167.77;87.85;;;;;;;7.66;nan;95008.22;5050457;28;20216;-61
2022/12/24 07:53:10;;;;;;;99.82;51.47;;;;;;;7.62;nan;95002.41;5050551;28;21267;-61
2022/12/24 07:55:37;;;;;;;89.72;46.42;;;;;;;7.60;nan;95010.88;5049522;28;20205;-61
2022/12/24 07:58:04;;;;;;;80.82;44.00;;;;;;;7.59;nan;95009.22;5049690;28;20214;-61
2022/12/24 08:00:30;;;;;;;88.28;44.72;;;;;;;7.81;nan;95011.22;5049738;28;20970;-62
2022/12/24 08:02:58;;;;;;;74.95;43.33;;;;;;;8.35;nan;95009.91;5049688;28;20209;-59
2022/12/24 08:05:25;;;;;;;90.97;46.63;;;;;;;8.66;nan;95015.00;5050562;28;20198;-62
2022/12/24 08:07:54;;;;;;;82.65;45.55;;;;;;;8.74;nan;95018.97;5050747;28;20686;-61
2022/12/24 08:10:21;;;;;;;83.43;47.13;;;;;;;8.68;nan;95016.59;5049869;28;20198;-63
2022/12/24 08:12:48;;;;;;;82.78;48.22;;;;;;;8.59;nan;95019.41;5050007;28;20197;-61
2022/12/24 08:15:16;;;;;;;80.13;45.95;;;;;;;8.50;nan;95022.16;5049200;28;20329;-61
2022/12/24 08:17:43;;;;;;;85.18;47.28;;;;;;;8.47;nan;95020.53;5049591;28;20718;-61
2022/12/24 08:20:10;;;;;;;83.70;46.08;;;;;;;8.53;nan;95024.63;5050377;28;20225;-62
2022/12/24 08:22:37;;;;;;;79.22;45.42;;;;;;;8.65;nan;95008.28;5050425;28;21481;-61
2022/12/24 08:25:06;;;;;;;74.05;42.95;;;;;;;8.80;nan;95011.22;5048414;28;20740;-61
2022/12/24 08:27:33;;;;;;;72.80;41.00;;;;;;;8.93;nan;95008.34;5049832;28;20205;-61
2022/12/24 08:30:00;;;;;;;66.93;42.53;;;;;;;8.85;nan;95011.09;5050084;28;21407;-61
2022/12/24 08:32:27;;;;;;;72.00;41.25;;;;;;;8.81;nan;95012.88;5049818;28;20259;-62
2022/12/24 08:34:53;;;;;;;84.70;43.58;;;;;;;8.73;nan;95007.19;5048388;28;20226;-62
2022/12/24 08:37:21;;;;;;;75.38;42.22;;;;;;;8.51;nan;94995.97;5049516;28;20235;-61
2022/12/24 08:39:47;;;;;;;89.45;44.88;;;;;;;8.41;nan;94986.97;5050238;28;20221;-62
2022/12/24 08:42:16;;;;;;;85.50;46.05;;;;;;;8.26;nan;94994.91;5050777;28;20206;-62
2022/12/24 08:44:42;;;;;;;95.13;49.03;;;;;;;8.17;nan;95003.56;5048397;28;20214;-61
2022/12/24 08:47:09;;;;;;;106.68;53.55;;;;;;;8.11;nan;95011.34;5048994;28;20258;-62
2022/12/24 08:49:36;;;;;;;89.50;49.45;;;;;;;8.16;nan;95020.50;5049759;28;20259;-60
2022/12/24 08:52:02;;;;;;;102.90;51.60;;;;;;;8.08;nan;95011.41;5049666;28;20262;-61
2022/12/24 08:54:29;;;;;;;98.20;52.85;;;;;;;8.01;nan;95020.84;5047688;28;20202;-61
2022/12/24 08:56:56;;;;;;;91.60;52.50;;;;;;;7.91;nan;95024.47;5051121;28;20650;-62
2022/12/24 08:59:25;;;;;;;109.50;53.58;;;;;;;7.93;nan;95017.66;5049394;28;20226;-61
2022/12/24 09:01:51;;;;;;;96.15;53.55;;;;;;;8.03;nan;95008.97;5048964;28;20229;-63
2022/12/24 09:04:19;;;;;;;90.97;51.05;;;;;;;8.08;nan;95012.25;5048426;28;20201;-62
2022/12/24 09:06:45;;;;;;;92.97;51.25;;;;;;;8.18;nan;95011.13;5048084;28;22140;-63
2022/12/24 09:09:12;;;;;;;98.53;51.95;;;;;;;8.41;nan;95004.69;5049625;28;20205;-61
2022/12/24 09:11:39;;;;;;;98.30;52.67;;;;;;;8.59;nan;95011.81;5048051;28;20294;-61
2022/12/24 09:14:06;;;;;;;87.13;49.33;;;;;;;8.84;nan;95004.38;5049163;28;20237;-61
2022/12/24 09:16:34;;;;;;;86.50;48.13;;;;;;;9.05;nan;95008.00;5047040;28;20206;-62
2022/12/24 09:19:01;;;;;;;102.82;54.70;;;;;;;9.09;nan;95010.41;5049443;28;20322;-61
2022/12/24 09:21:28;;;;;;;103.13;52.85;;;;;;;9.05;nan;95003.75;5048471;28;20473;-61
2022/12/24 09:23:54;;;;;;;97.57;53.95;;;;;;;8.91;nan;94989.84;5046889;28;20209;-62
2022/12/24 09:26:23;;;;;;;111.57;59.55;;;;;;;8.76;nan;94991.06;5046033;28;20232;-61
2022/12/24 09:28:51;;;;;;;121.15;63.35;;;;;;;8.54;nan;94985.75;5047732;28;20626;-62
2022/12/24 09:31:19;;;;;;;122.40;68.57;;;;;;;8.44;nan;95007.97;5048127;28;20206;-63
2022/12/24 09:33:49;;;;;;;124.82;65.65;;;;;;;8.38;nan;94992.94;5049001;28;20225;-61
2022/12/24 09:36:17;;;;;;;111.65;60.05;;;;;;;8.16;nan;94989.28;5047326;28;20221;-61
2022/12/24 09:38:44;;;;;;;113.38;59.70;;;;;;;8.06;nan;94996.25;5048409;28;20591;-63
2022/12/24 09:41:14;;;;;;;97.55;54.28;;;;;;;7.97;nan;94990.59;5047579;28;20221;-61
2022/12/24 09:43:47;;;;;;;98.85;55.67;;;;;;;7.91;nan;94994.13;5048592;28;20212;-63
2022/12/24 09:46:20;;;;;;;98.88;54.28;;;;;;;7.77;nan;94980.94;5045589;28;20201;-62
2022/12/24 09:48:54;;;;;;;86.93;50.85;;;;;;;7.81;nan;94962.31;5048287;28;20205;-62
2022/12/24 09:51:29;;;;;;;85.45;48.80;;;;;;;8.04;nan;94977.75;5047406;28;20206;-61
2022/12/24 09:54:02;;;;;;;88.78;48.38;;;;;;;8.24;nan;94986.53;5048590;28;20484;-61
2022/12/24 09:56:39;;;;;;;91.50;47.75;;;;;;;8.37;nan;94973.56;5046888;28;20202;-61
2022/12/24 09:59:11;;;;;;;84.55;46.92;;;;;;;8.64;nan;94977.06;5047542;28;20204;-62
2022/12/24 10:01:38;;;;;;;77.45;44.67;;;;;;;8.65;nan;94977.88;5046781;28;20201;-64
2022/12/24 10:04:12;;;;;;;83.38;46.25;;;;;;;8.56;nan;94986.56;5047920;28;20209;-62
2022/12/24 10:06:47;;;;;;;80.88;47.65;;;;;;;8.63;nan;94995.66;5046238;28;20682;-61
2022/12/24 10:09:22;;;;;;;103.47;51.50;;;;;;;8.68;nan;95001.41;5047325;28;20212;-61
2022/12/24 10:11:57;;;;;;;87.68;48.08;;;;;;;8.80;nan;94990.94;5049023;28;20208;-62
2022/12/24 10:14:44;;;;;;;80.18;47.88;;;;;;;8.82;nan;94988.38;5048092;28;20255;-61
2022/12/24 10:17:30;;;;;;;80.35;47.05;;;;;;;8.65;nan;94972.81;5048449;28;20225;-62
2022/12/24 10:20:18;;;;;;;81.25;48.33;;;;;;;8.51;nan;94966.41;5048510;28;20290;-62
2022/12/24 10:22:56;;;;;;;87.68;47.17;;;;;;;8.61;nan;94956.88;5053392;28;20244;-61
2022/12/24 10:25:30;;;;;;;87.68;47.83;;;;;;;8.75;nan;94969.97;5054432;28;21402;-62
2022/12/24 10:28:00;;;;;;;85.82;47.50;;;;;;;8.81;nan;94979.13;5050897;28;20207;-61
2022/12/24 10:30:27;;;;;;;76.70;45.20;;;;;;;9.02;nan;94980.19;5054277;28;21397;-62
2022/12/24 10:32:55;;;;;;;78.25;46.15;;;;;;;9.21;nan;94978.78;5055875;28;20225;-62
2022/12/24 10:35:27;;;;;;;81.30;44.53;;;;;;;9.11;nan;94974.88;5053483;28;20283;-64
2022/12/24 10:37:56;;;;;;;74.68;47.60;;;;;;;8.86;nan;94960.38;5054480;28;20201;-62
2022/12/24 10:40:32;;;;;;;74.43;44.70;;;;;;;8.67;nan;94961.75;5054590;28;20395;-61
2022/12/24 10:42:59;;;;;;;82.47;44.53;;;;;;;8.54;nan;94960.44;5054020;28;20261;-62
2022/12/24 10:45:34;;;;;;;82.15;44.85;;;;;;;8.33;nan;94966.91;5051555;28;20213;-60
2022/12/24 10:48:07;;;;;;;79.00;44.55;;;;;;;8.07;nan;94959.97;5052852;28;20228;-61
2022/12/24 10:50:39;;;;;;;77.82;43.45;;;;;;;8.07;nan;94966.72;5054517;28;20202;-60
2022/12/24 10:53:15;;;;;;;73.13;44.92;;;;;;;8.14;nan;94953.06;5055260;28;20252;-62
2022/12/24 10:55:42;;;;;;;75.55;44.50;;;;;;;8.18;nan;94952.91;5053015;28;20209;-61
2022/12/24 10:58:15;;;;;;;71.03;40.72;;;;;;;8.26;nan;94956.94;5052645;28;20232;-62
2022/12/24 11:00:42;;;;;;;75.82;45.50;;;;;;;8.33;nan;94961.00;5053483;28;20726;-67
2022/12/24 11:03:23;;;;;;;74.80;46.67;;;;;;;8.50;nan;94968.97;5055169;28;20206;-65
2022/12/24 11:06:11;;;;;;;80.03;46.45;;;;;;;8.52;nan;94969.78;5052831;28;20201;-66
2022/12/24 11:08:40;;;;;;;77.28;46.55;;;;;;;8.57;nan;94959.53;5054051;28;20213;-70
2022/12/24 11:11:11;;;;;;;78.78;46.25;;;;;;;8.70;nan;94964.19;5055140;28;20346;-62
2022/12/24 11:13:40;;;;;;;85.80;49.45;;;;;;;8.94;nan;94955.06;5053918;28;20210;-66
2022/12/24 11:16:15;;;;;;;80.53;47.03;;;;;;;9.27;nan;94953.25;5053055;28;20249;-64
2022/12/24 11:18:47;;;;;;;70.10;45.20;;;;;;;9.30;nan;94955.69;5053900;28;20215;-62
2022/12/24 11:21:20;;;;;;;82.07;47.30;;;;;;;9.40;nan;94941.03;5053708;28;20221;-64
2022/12/24 11:23:51;;;;;;;78.03;44.75;;;;;;;9.66;nan;94952.88;5054889;28;20616;-63
2022/12/24 11:26:22;;;;;;;80.53;45.58;;;;;;;9.90;nan;94962.25;5052453;28;21627;-63
2022/12/24 11:29:05;;;;;;;76.70;44.03;;;;;;;10.17;nan;94957.97;5053425;28;20212;-63
2022/12/24 11:31:36;;;;;;;72.90;44.83;;;;;;;10.45;nan;94970.59;5053893;28;20650;-68
2022/12/24 11:34:18;;;;;;;76.00;44.03;;;;;;;10.73;nan;94963.66;5050824;28;20316;-66
2022/12/24 11:36:46;;;;;;;68.35;41.95;;;;;;;10.96;nan;94946.75;5050954;28;20220;-68
2022/12/24 11:39:19;;;;;;;62.90;40.80;;;;;;;11.04;nan;94942.22;5051218;28;20201;-64
2022/12/24 11:41:46;;;;;;;61.70;37.97;;;;;;;11.14;nan;94951.16;5050634;28;20225;-62
2022/12/24 11:44:13;;;;;;;59.22;37.50;;;;;;;11.32;nan;94945.38;5049230;28;20204;-62
2022/12/24 11:46:43;;;;;;;60.15;36.70;;;;;;;11.47;nan;94946.50;5049934;28;20588;-62
2022/12/24 11:49:23;;;;;;;50.35;32.70;;;;;;;11.57;nan;94943.53;5047230;28;20204;-62
2022/12/24 11:52:16;;;;;;;50.35;33.10;;;;;;;11.57;nan;94941.00;5045766;28;22617;-62
2022/12/24 11:54:50;;;;;;;49.45;31.77;;;;;;;11.45;nan;94938.91;5047843;28;20217;-62
2022/12/24 11:57:20;;;;;;;45.53;30.17;;;;;;;11.42;nan;94939.03;5050429;28;20212;-62